Jackson, MI

7:23 PM EST on March 04, 2015 (GMT -0500)
Jeffrey Roush Photography - Jackson, MI | Change Station
CLOSE
Current Station
Personal Weather Station
Location: Jackson, MI
Elevation: 986 ft
Nearby Weather Stations

Elev 986 ft 42.26 °N, 84.43 °W | Updated 13 seconds ago

Partly Cloudy
Partly Cloudy
15.2 °F
Feels Like 3 °F
N
9.2
Wind Variable Wind from West
Gusts 13.0 mph

Today
High -- | Low -- °F
--% Chance of Precip.
Yesterday
High -- | Low -- °F
Precip. -- in
7:08 AM 6:30 PM
Waxing Gibbous, 99% visible
Pressure 30.12 in
Visibility 10.0 miles
Clouds Clear
Windchill 3 °F
Dew Point 3 °F
Humidity 57%
Rainfall 0.00 in
Snow Depth Not available.
UV 0 out of 12
Pollen .50 out of 12
Air Quality Not available.
Flu Activity Not available.
METAR KJXN 042356Z 31016G23KT 10SM CLR M08/M16 A3008 RMK AO2 PK WND 29027/2326 SLP199 T10781156 11017 21078 53025

More Conditions Fewer Conditions

Pressure 30.12 in
Visibility 10.0 miles
Clouds Clear
Windchill 3 °F
Dew Point 3 °F
Humidity 57%
Rainfall 0.00 in
Snow Depth Not available.
UV 0 out of 12
Pollen .50 out of 12
Air Quality Not available.
Flu Activity Not available.
METAR KJXN 042356Z 31016G23KT 10SM CLR M08/M16 A3008 RMK AO2 PK WND 29027/2326 SLP199 T10781156 11017 21078 53025

More Conditions Fewer Conditions

10-Day Weather Forecast

Almanac

Astronomy

Mar. 04, 2015 Rise Set
Actual Time
Civil Twilight
Nautical Twilight
Astronomical Twilight
Moon
Length of Visible Light
Length of Day
Tomorrow will be .
, % of the Moon is Illuminated

Today's Extremes

State Highs State Lows

Community

WunderPhotos

Upload Photos

1,802,606 photos uploaded!

WunderBlogs® & News

Nearby

Air Quality

  Air Quality AQ Index Pollutant
Not available.

Snow Depth

Station Depth Elevation

Earthquake Activity

City Distance Mag. Time & Date
Minimum magnitude displayed is 2.5.

Coastal Water Temperatures

Place Temperature

Nearby Weather Stations